createdAt,value
2022-10-17T00:01:08.056Z,20.00
2022-10-17T00:06:13.891Z,18.08
2022-10-17T00:11:20.410Z,18.28
2022-10-17T00:16:24.525Z,20.03
2022-10-17T00:21:27.225Z,18.21
2022-10-17T00:26:30.096Z,16.78
2022-10-17T00:31:32.905Z,17.24
2022-10-17T00:36:35.547Z,19.62
2022-10-17T00:41:38.162Z,18.54
2022-10-17T00:46:40.812Z,16.83
2022-10-17T00:51:46.898Z,17.21
2022-10-17T00:56:50.309Z,19.64
2022-10-17T01:02:11.750Z,18.61
2022-10-17T01:07:14.757Z,16.76
2022-10-17T01:12:22.474Z,17.10
2022-10-17T01:17:59.219Z,19.25
2022-10-17T01:23:19.107Z,17.51
2022-10-17T01:28:40.050Z,16.05
2022-10-17T01:34:03.880Z,16.64
2022-10-17T01:39:34.400Z,18.68
2022-10-17T01:44:50.183Z,16.76
2022-10-17T01:49:55.275Z,15.26
2022-10-17T01:55:08.633Z,15.75
2022-10-17T02:00:17.789Z,18.34
2022-10-17T02:05:24.677Z,17.61
2022-10-17T02:10:53.586Z,15.66
2022-10-17T02:16:04.846Z,14.41
2022-10-17T02:21:14.360Z,15.17
2022-10-17T02:26:28.938Z,17.88
2022-10-17T02:31:39.211Z,17.89
2022-10-17T02:36:49.910Z,15.82
2022-10-17T02:41:56.670Z,14.62
2022-10-17T02:47:31.851Z,15.36
2022-10-17T02:52:48.586Z,18.12
2022-10-17T02:57:56.099Z,17.21
2022-10-17T03:02:58.780Z,15.19
2022-10-17T03:08:01.399Z,13.98
2022-10-17T03:13:04.025Z,14.62
2022-10-17T03:18:06.727Z,17.28
2022-10-17T03:23:09.392Z,17.18
2022-10-17T03:28:12.602Z,15.06
2022-10-17T03:33:15.273Z,13.75
2022-10-17T03:38:17.898Z,14.32
2022-10-17T03:43:20.498Z,17.01
2022-10-17T03:48:23.137Z,16.66
2022-10-17T03:53:25.793Z,14.61
2022-10-17T03:58:29.008Z,13.36
2022-10-17T04:03:32.004Z,13.95
2022-10-17T04:08:35.215Z,16.71
2022-10-17T04:13:37.851Z,16.26
2022-10-17T04:18:41.098Z,14.30
2022-10-17T04:23:43.721Z,13.10
2022-10-17T04:28:46.513Z,13.64
2022-10-17T04:33:50.530Z,16.22
2022-10-17T04:38:53.137Z,15.17
2022-10-17T04:43:55.733Z,13.37
2022-10-17T04:48:58.551Z,13.75
2022-10-17T04:54:01.194Z,16.42
2022-10-17T04:59:03.844Z,16.46
2022-10-17T05:04:06.511Z,14.38
2022-10-17T05:09:09.136Z,13.20
2022-10-17T05:14:11.834Z,13.72
2022-10-17T05:19:14.445Z,16.35
2022-10-17T05:24:17.232Z,16.27
2022-10-17T05:29:19.891Z,14.09
2022-10-17T05:34:22.526Z,12.74
2022-10-17T05:39:25.296Z,13.35
2022-10-17T05:44:28.230Z,16.30
2022-10-17T05:49:39.971Z,16.53
2022-10-17T05:54:47.658Z,14.48
2022-10-17T05:59:50.556Z,13.37
2022-10-17T06:04:53.361Z,14.13
2022-10-17T06:09:56.021Z,16.83
2022-10-17T06:14:59.114Z,16.37
2022-10-17T06:20:02.086Z,14.39
2022-10-17T06:25:05.181Z,13.23
2022-10-17T06:30:08.366Z,13.88
2022-10-17T06:35:11.048Z,16.74
2022-10-17T06:40:16.949Z,16.97
2022-10-17T06:45:19.583Z,15.05
2022-10-17T06:50:22.477Z,15.38
2022-10-17T06:55:25.163Z,18.11
2022-10-17T07:00:28.424Z,17.35
2022-10-17T07:05:31.176Z,15.68
2022-10-17T07:10:38.296Z,16.11
2022-10-17T07:15:42.195Z,18.79
2022-10-17T07:20:53.042Z,18.38
2022-10-17T07:26:01.633Z,16.51
2022-10-17T07:31:13.348Z,17.00
2022-10-17T07:36:16.815Z,19.45
2022-10-17T07:41:21.793Z,18.33
2022-10-17T07:46:24.901Z,16.68
2022-10-17T07:51:28.400Z,17.25
2022-10-17T07:56:31.649Z,19.88
2022-10-17T08:01:34.245Z,19.27
2022-10-17T08:06:36.940Z,17.64
2022-10-17T08:11:39.680Z,18.40
2022-10-17T08:16:43.261Z,20.71
2022-10-17T08:21:46.944Z,19.33
2022-10-17T08:26:51.830Z,17.72
2022-10-17T08:31:58.664Z,18.30
2022-10-17T08:37:04.220Z,20.83
2022-10-17T08:42:25.991Z,21.01
2022-10-17T08:47:45.555Z,19.24
2022-10-17T08:52:56.456Z,19.76
2022-10-17T08:57:59.241Z,21.62
2022-10-17T09:03:23.773Z,20.20
2022-10-17T09:08:44.452Z,19.19
2022-10-17T09:14:02.897Z,20.30
2022-10-17T09:19:24.467Z,22.21
2022-10-17T09:24:44.577Z,20.84
2022-10-17T09:29:49.998Z,20.12
2022-10-17T09:34:53.864Z,21.15
2022-10-17T09:39:56.955Z,23.14
2022-10-17T09:45:26.802Z,21.98
2022-10-17T09:50:35.021Z,21.27
2022-10-17T09:55:48.498Z,22.30
2022-10-17T10:00:51.214Z,24.03
2022-10-17T10:05:59.734Z,22.89
2022-10-17T10:11:06.558Z,22.36
2022-10-17T10:16:21.000Z,22.13
2022-10-17T10:21:26.830Z,21.95
2022-10-17T10:26:40.928Z,21.96
2022-10-17T10:31:44.138Z,22.67
2022-10-17T10:37:14.708Z,23.77
2022-10-17T10:42:27.159Z,25.14
2022-10-17T10:47:32.649Z,26.32
2022-10-17T10:52:46.337Z,27.35
2022-10-17T10:57:53.149Z,28.38
2022-10-17T11:03:12.826Z,29.27
2022-10-17T11:08:49.117Z,29.92
2022-10-17T11:14:00.739Z,30.79
2022-10-17T11:19:21.140Z,31.38
2022-10-17T11:24:27.936Z,32.02
2022-10-17T11:29:38.518Z,32.44
2022-10-17T11:34:48.230Z,32.67
2022-10-17T11:40:03.212Z,33.02
2022-10-17T11:45:14.112Z,33.26
2022-10-17T11:56:02.181Z,34.16
2022-10-17T12:01:19.834Z,34.58
2022-10-17T12:06:27.098Z,35.02
2022-10-17T12:11:58.329Z,35.32
2022-10-17T12:17:02.640Z,35.69
2022-10-17T12:22:28.689Z,35.51
2022-10-17T12:27:42.297Z,34.39
2022-10-17T12:33:06.172Z,32.85
2022-10-17T12:38:20.901Z,31.07
2022-10-17T12:43:29.670Z,30.29
2022-10-17T12:48:38.608Z,30.53
2022-10-17T12:54:02.689Z,31.02
2022-10-17T12:59:17.244Z,30.85
2022-10-17T13:04:20.831Z,29.73
2022-10-17T13:09:32.634Z,29.06
2022-10-17T13:14:35.440Z,28.67
2022-10-17T13:19:44.227Z,27.84
2022-10-17T13:24:48.179Z,27.05
2022-10-17T13:29:50.955Z,26.27
2022-10-17T13:35:09.405Z,25.71
2022-10-17T13:40:40.930Z,25.19
2022-10-17T13:45:39.695Z,24.73
2022-10-17T13:50:44.794Z,24.45
2022-10-17T13:56:15.753Z,24.20
2022-10-17T14:01:21.307Z,23.95
2022-10-17T14:06:31.352Z,23.84
2022-10-17T14:11:37.135Z,23.77
2022-10-17T14:16:42.170Z,23.63
2022-10-17T14:21:49.388Z,23.38
2022-10-17T14:26:54.308Z,23.16
2022-10-17T14:32:00.214Z,23.01
2022-10-17T14:37:10.043Z,22.86
2022-10-17T14:42:19.392Z,22.67
2022-10-17T14:47:42.601Z,22.49
2022-10-17T14:53:03.739Z,22.42
2022-10-17T14:58:17.731Z,22.41
2022-10-17T15:03:20.496Z,22.37
2022-10-17T15:08:24.238Z,22.23
2022-10-17T15:13:28.488Z,21.99
2022-10-17T15:18:32.609Z,21.76
2022-10-17T15:23:35.230Z,22.68
2022-10-17T15:28:37.905Z,25.30
2022-10-17T15:33:41.101Z,25.22
2022-10-17T15:38:43.798Z,23.51
2022-10-17T15:43:48.560Z,22.45
2022-10-17T15:48:51.759Z,21.68
2022-10-17T15:53:54.453Z,21.12
2022-10-17T15:58:58.219Z,20.68
2022-10-17T16:04:01.164Z,21.60
2022-10-17T16:09:03.983Z,24.20
2022-10-17T16:14:18.271Z,24.06
2022-10-17T16:19:21.783Z,22.32
2022-10-17T16:24:25.074Z,21.32
2022-10-17T16:29:27.680Z,20.65
2022-10-17T16:34:31.812Z,20.14
2022-10-17T16:39:34.496Z,21.09
2022-10-17T16:44:37.116Z,23.66
2022-10-17T16:49:42.900Z,23.60
2022-10-17T16:54:47.932Z,21.88
2022-10-17T16:59:50.630Z,20.84
2022-10-17T17:04:53.250Z,20.14
2022-10-17T17:09:56.437Z,20.86
2022-10-17T17:14:59.236Z,23.37
2022-10-17T17:20:01.944Z,23.10
2022-10-17T17:25:05.149Z,21.40
2022-10-17T17:30:08.552Z,20.38
2022-10-17T17:35:11.157Z,20.92
2022-10-17T17:40:13.892Z,23.35
2022-10-17T17:45:16.748Z,22.73
2022-10-17T17:50:19.770Z,21.21
2022-10-17T17:55:22.383Z,20.52
2022-10-17T18:00:25.318Z,22.21
2022-10-17T18:05:28.220Z,21.34
2022-10-17T18:10:30.815Z,20.86
2022-10-17T18:15:33.567Z,22.57
2022-10-17T18:20:41.057Z,21.35
2022-10-17T18:25:52.869Z,20.79
2022-10-17T18:30:58.250Z,22.10
2022-10-17T18:36:10.450Z,20.90
2022-10-17T18:41:16.593Z,22.08
2022-10-17T18:46:20.570Z,21.96
2022-10-17T18:51:24.896Z,20.65
2022-10-17T18:56:27.622Z,21.86
2022-10-17T19:01:30.332Z,21.10
2022-10-17T19:06:33.119Z,21.27
2022-10-17T19:11:37.418Z,22.38
2022-10-17T19:16:48.167Z,20.87
2022-10-17T19:21:51.880Z,21.69
2022-10-17T19:26:57.632Z,21.91
2022-10-17T19:32:01.095Z,20.52
2022-10-17T19:37:03.875Z,21.87
2022-10-17T19:42:07.139Z,22.07
2022-10-17T19:47:10.165Z,20.75
2022-10-17T19:52:13.354Z,22.39
2022-10-17T19:57:16.111Z,21.70
2022-10-17T20:02:18.777Z,20.35
2022-10-17T20:07:21.381Z,21.39
2022-10-17T20:12:24.096Z,22.01
2022-10-17T20:17:27.008Z,20.56
2022-10-17T20:22:30.198Z,21.87
2022-10-17T20:27:33.175Z,21.37
2022-10-17T20:32:39.461Z,20.67
2022-10-17T20:37:42.889Z,22.15
2022-10-17T20:42:45.672Z,20.85
2022-10-17T20:47:54.130Z,20.98
2022-10-17T20:53:12.349Z,21.75
2022-10-17T20:58:19.588Z,20.27
2022-10-17T21:03:22.491Z,21.24
2022-10-17T21:08:25.077Z,21.40
2022-10-17T21:13:27.673Z,20.01
2022-10-17T21:18:30.270Z,21.38
2022-10-17T21:23:32.865Z,21.99
2022-10-17T21:28:37.365Z,20.30
2022-10-17T21:33:41.738Z,20.53
2022-10-17T21:38:46.532Z,21.66
2022-10-17T21:43:53.704Z,20.10
2022-10-17T21:48:58.426Z,20.59
2022-10-17T21:54:01.073Z,21.45
2022-10-17T21:59:05.140Z,19.95
2022-10-17T22:04:11.256Z,20.25
2022-10-17T22:09:15.502Z,21.26
2022-10-17T22:14:21.171Z,19.71
2022-10-17T22:19:26.677Z,20.46
2022-10-17T22:24:29.341Z,21.08
2022-10-17T22:29:32.141Z,19.61
2022-10-17T22:34:34.922Z,20.87
2022-10-17T22:39:38.850Z,19.94
2022-10-17T22:44:41.487Z,20.05
2022-10-17T22:49:44.082Z,21.93
2022-10-17T22:54:46.702Z,20.52
2022-10-17T22:59:49.439Z,19.72
2022-10-17T23:04:52.071Z,21.84
2022-10-17T23:09:54.700Z,21.57
2022-10-17T23:14:57.347Z,19.74
2022-10-17T23:19:59.950Z,20.27
2022-10-17T23:25:02.840Z,20.54
2022-10-17T23:30:06.429Z,19.48
2022-10-17T23:35:10.059Z,20.97
2022-10-17T23:40:13.281Z,19.64
2022-10-17T23:45:16.042Z,20.23
2022-10-17T23:50:19.251Z,21.18
2022-10-17T23:55:21.990Z,19.46
